Time;durP1;ratioP1;P1;durP2;ratioP2;P2;SDS_P1;SDS_P2;PMS_P1;PMS_P2;Temp;Humidity;BMP_temperature;BMP_pressure;BME280_temperature;BME280_humidity;BME280_pressure;Samples;Min_cycle;Max_cycle;Signal;HPM_P1;HPM_P2
2022/11/02 00:00:55;;;;;;;12.13;5.63;;;;;;;9.77;70.40;93400.72;2047531;70;20230;-77
2022/11/02 00:03:23;;;;;;;12.15;5.70;;;;;;;9.84;69.54;93400.56;2047925;70;20153;-77
2022/11/02 00:05:48;;;;;;;11.40;5.13;;;;;;;9.83;69.40;93407.50;2047403;70;20182;-77
2022/11/02 00:08:17;;;;;;;10.85;5.47;;;;;;;9.77;68.98;93404.25;2047515;70;20564;-77
2022/11/02 00:10:43;;;;;;;16.00;5.75;;;;;;;9.84;69.03;93411.81;2048058;70;20153;-75
2022/11/02 00:13:08;;;;;;;13.43;5.38;;;;;;;9.78;69.94;93394.47;2051093;69;20146;-77
2022/11/02 00:15:36;;;;;;;11.88;5.63;;;;;;;9.83;69.34;93401.88;2047995;70;20465;-76
2022/11/02 00:18:08;;;;;;;15.48;5.10;;;;;;;9.83;70.09;93398.34;2050748;70;20166;-77
2022/11/02 00:20:36;;;;;;;12.32;5.22;;;;;;;9.84;69.80;93394.94;2050642;70;20150;-77
2022/11/02 00:23:02;;;;;;;13.93;4.78;;;;;;;9.90;69.40;93401.03;2051542;70;20181;-77
2022/11/02 00:25:28;;;;;;;13.25;4.93;;;;;;;9.85;69.33;93404.09;2051313;69;20302;-77
2022/11/02 00:27:56;;;;;;;16.13;5.45;;;;;;;9.71;69.59;93405.84;2051286;70;20150;-77
2022/11/02 00:30:22;;;;;;;13.38;4.88;;;;;;;9.87;69.58;93413.44;2051263;69;20212;-77
2022/11/02 00:32:48;;;;;;;11.55;4.75;;;;;;;9.85;69.61;93421.75;2050684;70;20658;-76
2022/11/02 00:35:14;;;;;;;15.05;5.15;;;;;;;9.57;70.73;93419.59;2047973;70;20158;-76
2022/11/02 00:37:39;;;;;;;14.15;5.22;;;;;;;9.54;70.67;93427.13;2051267;70;20526;-76
2022/11/02 00:40:06;;;;;;;13.57;5.32;;;;;;;9.64;69.93;93427.16;2050696;70;20160;-77
2022/11/02 00:42:32;;;;;;;14.82;5.00;;;;;;;9.63;70.36;93420.78;2050578;70;20249;-76
2022/11/02 00:44:57;;;;;;;10.80;5.20;;;;;;;9.60;69.91;93424.78;2050371;70;20142;-76
2022/11/02 00:47:25;;;;;;;9.45;4.75;;;;;;;9.70;69.82;93424.78;2050267;70;20221;-76
2022/11/02 00:49:53;;;;;;;10.80;4.43;;;;;;;9.73;69.94;93420.81;2047621;70;20249;-79
2022/11/02 00:52:19;;;;;;;12.05;4.65;;;;;;;9.76;69.78;93422.47;2050365;70;20204;-77
2022/11/02 00:54:49;;;;;;;14.95;5.07;;;;;;;9.72;69.75;93427.78;2051317;70;20229;-77
2022/11/02 00:57:17;;;;;;;14.98;5.28;;;;;;;9.63;69.33;93429.22;2050549;70;20240;-78
2022/11/02 00:59:46;;;;;;;13.05;5.53;;;;;;;9.55;70.58;93417.38;2051236;69;20622;-77
2022/11/02 01:02:14;;;;;;;13.25;4.70;;;;;;;9.66;68.95;93424.50;2050833;70;20150;-77
2022/11/02 01:04:39;;;;;;;12.20;5.30;;;;;;;9.64;68.63;93422.28;2051203;70;20154;-77
2022/11/02 01:07:06;;;;;;;13.30;4.80;;;;;;;9.52;70.24;93423.41;2050655;70;20187;-77
2022/11/02 01:09:33;;;;;;;12.82;4.75;;;;;;;9.48;69.40;93423.84;2050744;70;20607;-77
2022/11/02 01:11:59;;;;;;;10.23;5.00;;;;;;;9.26;70.07;93431.31;2050543;70;20267;-77
2022/11/02 01:14:26;;;;;;;11.68;4.65;;;;;;;9.31;70.51;93426.75;2051146;69;20196;-77
2022/11/02 01:16:51;;;;;;;11.63;4.90;;;;;;;9.36;69.88;93422.94;2051364;70;20146;-78
2022/11/02 01:19:17;;;;;;;14.93;4.80;;;;;;;9.35;69.81;93427.06;2050497;70;20138;-77
2022/11/02 01:21:43;;;;;;;11.85;4.28;;;;;;;9.35;69.62;93432.69;2051282;69;20232;-78
2022/11/02 01:24:09;;;;;;;10.38;5.10;;;;;;;9.37;69.37;93430.78;2050879;70;20158;-77
2022/11/02 01:26:34;;;;;;;10.90;4.90;;;;;;;9.33;70.07;93419.22;2051158;70;20321;-76
2022/11/02 01:29:01;;;;;;;13.48;5.10;;;;;;;9.12;70.71;93419.00;2050967;70;20589;-76
2022/11/02 01:31:26;;;;;;;16.63;5.10;;;;;;;9.42;70.24;93415.69;2051476;70;20147;-77
2022/11/02 01:33:52;;;;;;;10.95;4.68;;;;;;;9.40;69.75;93423.25;2051518;70;20185;-76
2022/11/02 01:36:21;;;;;;;10.52;4.45;;;;;;;9.40;70.25;93415.56;2051623;69;20146;-77
2022/11/02 01:38:48;;;;;;;12.05;4.30;;;;;;;9.53;69.52;93413.66;2051645;70;20176;-77
2022/11/02 01:41:15;;;;;;;12.20;4.78;;;;;;;9.63;69.04;93408.81;2051063;70;20236;-77
2022/11/02 01:43:48;;;;;;;13.93;5.97;;;;;;;9.12;71.31;93407.75;2051053;70;20158;-77
2022/11/02 01:46:24;;;;;;;13.35;5.63;;;;;;;9.10;70.71;93404.78;2051328;70;20198;-77
2022/11/02 01:48:54;;;;;;;10.18;4.95;;;;;;;9.22;70.75;93405.00;2051219;70;20153;-76
2022/11/02 01:51:28;;;;;;;15.52;5.30;;;;;;;9.11;71.52;93395.75;2051664;69;20165;-77
2022/11/02 01:53:58;;;;;;;11.18;4.60;;;;;;;9.20;71.01;93396.38;2048179;70;20174;-77
2022/11/02 01:56:28;;;;;;;13.40;4.90;;;;;;;9.12;70.35;93394.47;2051377;69;20145;-77
2022/11/02 01:59:00;;;;;;;10.48;4.50;;;;;;;9.20;70.76;93394.31;2051074;70;20591;-77
2022/11/02 02:01:26;;;;;;;11.27;4.57;;;;;;;9.12;70.63;93390.91;2051014;70;20272;-77
2022/11/02 02:03:55;;;;;;;13.02;4.60;;;;;;;9.02;71.77;93390.84;2048292;70;20252;-75
2022/11/02 02:06:21;;;;;;;10.48;4.45;;;;;;;9.10;71.25;93380.25;2048491;70;20205;-76
2022/11/02 02:08:50;;;;;;;15.50;4.32;;;;;;;9.39;69.88;93388.03;2048299;70;20632;-77
2022/11/02 02:11:30;;;;;;;13.90;5.18;;;;;;;9.39;70.15;93383.16;2051498;70;20158;-78
2022/11/02 02:13:59;;;;;;;11.98;4.80;;;;;;;9.20;69.58;93377.47;2048022;70;20202;-76
2022/11/02 02:16:54;;;;;;;13.43;4.32;;;;;;;9.26;68.87;93377.22;2051218;70;20174;-76
2022/11/02 02:19:48;;;;;;;13.98;4.90;;;;;;;9.01;70.26;93378.13;2048358;70;20674;-76
2022/11/02 02:22:41;;;;;;;14.90;4.45;;;;;;;8.88;70.23;93382.06;2051155;70;20670;-77
2022/11/02 02:25:30;;;;;;;11.93;4.38;;;;;;;8.96;70.40;93379.16;2051166;70;20154;-75
2022/11/02 02:28:09;;;;;;;10.63;4.53;;;;;;;8.86;69.44;93381.91;2051013;70;20158;-76
2022/11/02 02:31:01;;;;;;;9.93;4.60;;;;;;;8.84;70.22;93375.38;2051175;70;20188;-76
2022/11/02 02:33:33;;;;;;;13.13;4.53;;;;;;;8.55;71.00;93386.47;2051299;70;20142;-76
2022/11/02 02:36:17;;;;;;;11.30;4.72;;;;;;;8.64;71.69;93386.53;2048692;70;20161;-77
2022/11/02 02:38:54;;;;;;;14.75;4.47;;;;;;;8.77;70.96;93385.41;2052115;69;20150;-77
2022/11/02 02:41:39;;;;;;;11.25;4.55;;;;;;;8.69;70.95;93381.97;2051787;70;20149;-77
2022/11/02 02:44:15;;;;;;;15.30;4.97;;;;;;;8.84;70.85;93378.19;2047829;70;20173;-77
2022/11/02 02:46:55;;;;;;;13.80;4.40;;;;;;;8.82;70.73;93370.38;2051247;70;20146;-77
2022/11/02 02:49:28;;;;;;;14.25;4.72;;;;;;;8.75;69.80;93365.63;2051748;69;20161;-77
2022/11/02 02:51:56;;;;;;;12.38;4.20;;;;;;;8.67;71.08;93378.28;2051200;70;20672;-76
2022/11/02 02:54:30;;;;;;;11.65;4.72;;;;;;;8.54;70.71;93370.97;2051171;70;20158;-77
2022/11/02 02:56:57;;;;;;;;;;;;;;;8.54;70.57;93376.56;2051653;69;20162;-77
2022/11/02 02:59:38;;;;;;;8.23;4.32;;;;;;;8.44;70.29;93379.31;2048254;70;20058;-77
2022/11/02 03:02:15;;;;;;;12.23;4.68;;;;;;;8.34;70.68;93381.31;2051179;69;20151;-77
2022/11/02 03:04:41;;;;;;;9.73;4.18;;;;;;;8.23;71.22;93376.94;2050861;70;20135;-77
2022/11/02 03:07:11;;;;;;;12.35;4.32;;;;;;;8.35;70.89;93377.91;2050997;70;20174;-77
2022/11/02 03:09:48;;;;;;;12.60;4.75;;;;;;;8.34;72.03;93384.84;2050949;69;20700;-78
2022/11/02 03:12:40;;;;;;;12.00;4.43;;;;;;;8.40;71.42;93379.72;2051039;70;20178;-78
2022/11/02 03:15:42;;;;;;;15.18;4.65;;;;;;;8.33;70.43;93380.53;2048276;70;20169;-78
2022/11/02 03:18:40;;;;;;;11.05;4.65;;;;;;;8.24;70.27;93384.00;2049622;70;20155;-77
2022/11/02 03:21:40;;;;;;;9.63;4.95;;;;;;;8.09;71.10;93384.94;2051002;70;20229;-77
2022/11/02 03:24:30;;;;;;;10.90;4.05;;;;;;;8.12;71.22;93395.00;2051568;70;20569;-77
2022/11/02 03:27:20;;;;;;;15.20;4.88;;;;;;;8.22;71.04;93394.34;2050755;69;20622;-77
2022/11/02 03:29:52;;;;;;;10.38;5.05;;;;;;;7.99;71.83;93389.00;2050820;70;20518;-77
2022/11/02 03:32:28;;;;;;;15.13;4.43;;;;;;;8.03;70.97;93398.47;2050913;70;20135;-77
2022/11/02 03:35:00;;;;;;;13.35;4.78;;;;;;;8.00;70.90;93405.22;2050858;69;20264;-77
2022/11/02 03:37:34;;;;;;;11.23;4.53;;;;;;;7.93;71.24;93405.34;2048199;70;20248;-77
2022/11/02 03:40:29;;;;;;;14.15;4.78;;;;;;;7.95;71.43;93411.09;2051093;70;20269;-77
2022/11/02 03:42:58;;;;;;;11.77;4.32;;;;;;;8.00;71.32;93407.31;2049934;70;20168;-77
2022/11/02 03:45:29;;;;;;;12.05;4.22;;;;;;;8.03;70.81;93414.56;2051047;70;20161;-78
2022/11/02 03:48:02;;;;;;;16.30;5.17;;;;;;;7.82;72.47;93412.16;2048440;70;20546;-77
2022/11/02 03:50:31;;;;;;;10.50;4.63;;;;;;;7.85;72.00;93414.56;2051497;69;20499;-78
2022/11/02 03:53:08;;;;;;;10.25;4.50;;;;;;;7.88;73.63;93413.41;2045599;70;20145;-78
2022/11/02 03:55:57;;;;;;;12.55;4.72;;;;;;;7.90;72.59;93410.03;2050910;70;20146;-78
2022/11/02 03:58:23;;;;;;;11.27;4.78;;;;;;;8.00;72.73;93416.44;2050960;70;20330;-77
2022/11/02 04:01:01;;;;;;;11.73;4.22;;;;;;;7.98;71.58;93421.16;2051041;70;20587;-77
2022/11/02 04:03:29;;;;;;;14.65;4.40;;;;;;;8.01;72.39;93422.78;2051697;70;20193;-75
2022/11/02 04:05:56;;;;;;;13.02;4.60;;;;;;;8.10;72.32;93424.94;2048314;70;20618;-78
2022/11/02 04:08:33;;;;;;;13.50;4.55;;;;;;;7.87;72.16;93422.38;2050989;70;20159;-78
2022/11/02 04:16:38;;;;;;;13.48;4.90;;;;;;;7.84;72.40;93431.97;2050952;70;20192;-78
2022/11/02 04:19:28;;;;;;;12.35;4.55;;;;;;;7.79;72.13;93433.69;2050983;70;20487;-78
2022/11/02 04:27:39;;;;;;;10.55;4.60;;;;;;;7.60;73.05;93445.44;2050886;69;20193;-78
2022/11/02 04:30:06;;;;;;;9.30;4.43;;;;;;;7.58;71.96;93448.06;2045566;70;20170;-77
2022/11/02 04:35:32;;;;;;;11.75;4.78;;;;;;;7.59;72.14;93446.75;2051545;69;20127;-78
2022/11/02 04:40:44;;;;;;;18.70;10.38;;;;;;;7.48;72.88;93466.84;2050991;69;20233;-77
2022/11/02 04:43:10;;;;;;;17.13;7.07;;;;;;;7.54;72.18;93458.94;2048107;69;20351;-77
2022/11/02 04:45:36;;;;;;;13.52;5.57;;;;;;;7.41;73.25;93461.28;2050922;69;20622;-77
2022/11/02 04:48:07;;;;;;;13.10;5.53;;;;;;;7.41;72.26;93462.03;2050841;70;20189;-77
2022/11/02 04:50:33;;;;;;;17.95;5.85;;;;;;;7.38;72.72;93463.19;2050957;70;20627;-78
2022/11/02 04:53:01;;;;;;;19.00;10.20;;;;;;;7.52;71.96;93466.44;2051063;70;20598;-78
2022/11/02 04:55:29;;;;;;;18.98;8.77;;;;;;;7.58;73.57;93464.88;2050990;70;20142;-78
2022/11/02 04:57:56;;;;;;;13.30;6.30;;;;;;;7.70;72.09;93470.78;2051422;70;20166;-77
2022/11/02 05:00:23;;;;;;;16.67;5.53;;;;;;;7.78;72.07;93465.06;2051005;70;20161;-77
2022/11/02 05:02:50;;;;;;;13.48;6.13;;;;;;;7.10;75.23;93470.66;2051004;70;20237;-78
2022/11/02 05:05:18;;;;;;;14.00;6.05;;;;;;;7.36;73.94;93477.00;2048579;70;20146;-77
2022/11/02 05:07:45;;;;;;;17.10;5.40;;;;;;;7.43;72.99;93469.88;2051347;70;20166;-78
2022/11/02 05:10:11;;;;;;;12.52;5.50;;;;;;;7.47;72.82;93470.97;2051502;70;20138;-78
2022/11/02 05:12:37;;;;;;;12.98;5.50;;;;;;;7.50;72.68;93461.41;2051219;69;20217;-78
2022/11/02 05:15:03;;;;;;;13.75;6.45;;;;;;;7.50;72.70;93460.66;2052061;69;20177;-78
2022/11/02 05:17:29;;;;;;;15.35;6.10;;;;;;;7.52;72.47;93464.38;2052110;69;20162;-77
2022/11/02 05:19:55;;;;;;;14.02;6.03;;;;;;;7.55;72.08;93471.63;2051464;70;20146;-77
2022/11/02 05:22:20;;;;;;;17.45;6.05;;;;;;;7.53;72.59;93465.84;2051959;69;20166;-78
2022/11/02 05:24:46;;;;;;;9.55;5.40;;;;;;;7.58;72.80;93469.75;2051335;70;20601;-78
2022/11/02 05:27:13;;;;;;;9.60;4.97;;;;;;;7.61;73.15;93474.94;2051258;70;20690;-77
2022/11/02 05:29:40;;;;;;;17.05;4.93;;;;;;;7.76;72.44;93479.69;2051477;70;20161;-77
2022/11/02 05:32:05;;;;;;;10.55;4.85;;;;;;;7.82;72.84;93471.03;2051458;70;20511;-77
2022/11/02 05:34:31;;;;;;;15.57;6.55;;;;;;;7.77;73.28;93480.41;2051336;69;20237;-78
2022/11/02 05:36:58;;;;;;;19.15;7.15;;;;;;;7.87;73.47;93476.38;2051365;70;20525;-78
2022/11/02 05:39:24;;;;;;;20.67;7.28;;;;;;;7.83;73.59;93487.28;2051342;70;20150;-77
2022/11/02 05:41:49;;;;;;;10.07;5.13;;;;;;;8.10;73.17;93481.78;2051260;70;20157;-78
2022/11/02 05:44:15;;;;;;;11.10;4.07;;;;;;;8.22;72.14;93484.84;2051879;69;20317;-78
2022/11/02 05:46:43;;;;;;;12.65;4.88;;;;;;;8.33;71.87;93483.59;2051272;69;20143;-79
2022/11/02 05:49:09;;;;;;;14.05;5.80;;;;;;;8.29;72.59;93488.88;2051825;70;20610;-77
2022/11/02 05:51:34;;;;;;;13.35;4.10;;;;;;;8.36;72.70;93491.63;2051680;69;20138;-77
2022/11/02 05:54:00;;;;;;;10.63;4.20;;;;;;;8.57;71.75;93487.69;2051665;69;20154;-78
2022/11/02 05:56:26;;;;;;;14.43;3.78;;;;;;;8.79;71.21;93489.44;2051747;69;20289;-78
2022/11/02 05:58:55;;;;;;;11.00;4.03;;;;;;;8.90;70.99;93496.63;2051704;69;20233;-78
2022/11/02 06:01:20;;;;;;;11.02;3.80;;;;;;;8.83;70.75;93495.38;2051832;69;20178;-78
2022/11/02 06:07:33;;;;;;;12.77;3.72;;;;;;;8.75;70.83;93500.38;2052057;70;20634;-77
2022/11/02 06:13:58;;;;;;;7.88;3.60;;;;;;;8.99;69.09;93514.88;2099234;64;20186;-76
2022/11/02 06:16:25;;;;;;;8.80;3.63;;;;;;;9.07;69.56;93521.88;2053967;69;20142;-73
2022/11/02 06:18:50;;;;;;;11.05;4.68;;;;;;;8.76;70.58;93526.38;2050952;70;20192;-75
2022/11/02 06:21:16;;;;;;;9.57;3.72;;;;;;;8.83;69.58;93525.53;2051279;70;20228;-77
2022/11/02 06:23:42;;;;;;;11.60;4.75;;;;;;;9.09;68.64;93524.81;2054584;70;20241;-76
2022/11/02 06:26:09;;;;;;;13.10;4.45;;;;;;;8.98;68.70;93522.56;2054665;70;20648;-76
2022/11/02 06:28:35;;;;;;;9.10;4.20;;;;;;;9.02;69.28;93530.53;2054511;70;20525;-76
2022/11/02 06:31:00;;;;;;;10.88;4.43;;;;;;;9.35;68.43;93525.44;2051121;70;20256;-72
2022/11/02 06:33:26;;;;;;;12.82;3.97;;;;;;;9.23;68.60;93527.28;2051248;70;20146;-73
2022/11/02 06:35:53;;;;;;;8.00;4.18;;;;;;;9.32;68.53;93530.13;2054672;70;20193;-74
2022/11/02 06:38:19;;;;;;;7.93;3.50;;;;;;;9.36;68.06;93529.72;2054766;70;20160;-75
2022/11/02 06:41:05;;;;;;;11.00;3.20;;;;;;;9.17;68.15;93530.34;2054809;70;20181;-77
2022/11/02 06:43:33;;;;;;;8.05;3.60;;;;;;;9.43;68.05;93535.22;2049077;70;20276;-77
2022/11/02 06:45:59;;;;;;;9.60;3.75;;;;;;;9.41;67.28;93537.13;2054875;70;20153;-77
2022/11/02 06:48:26;;;;;;;9.68;3.85;;;;;;;9.57;67.32;93537.66;2051785;70;20208;-78
2022/11/02 06:50:52;;;;;;;7.47;3.38;;;;;;;9.52;66.05;93541.47;2051736;70;20153;-74
2022/11/02 06:53:17;;;;;;;14.93;4.18;;;;;;;9.54;66.07;93545.19;2054528;70;20154;-75
2022/11/02 06:55:43;;;;;;;12.68;3.75;;;;;;;9.72;65.35;93547.94;2055003;70;20130;-74
2022/11/02 06:58:09;;;;;;;10.90;3.40;;;;;;;9.78;65.94;93551.22;2051988;70;20214;-74
2022/11/02 07:00:34;;;;;;;9.90;3.53;;;;;;;9.87;65.32;93548.44;2055314;69;20208;-73
2022/11/02 07:03:04;;;;;;;10.18;3.60;;;;;;;9.91;65.48;93548.00;2054673;70;20162;-74
2022/11/02 07:05:30;;;;;;;12.07;4.10;;;;;;;9.92;65.22;93541.06;2054488;70;20224;-74
2022/11/02 07:07:56;;;;;;;8.40;3.60;;;;;;;10.01;64.89;93543.16;2054418;69;20138;-74
2022/11/02 07:10:22;;;;;;;7.85;3.60;;;;;;;9.98;64.24;93544.31;2054417;70;20161;-75
2022/11/02 07:12:52;;;;;;;14.35;3.70;;;;;;;10.03;64.67;93537.66;2055004;70;20222;-75
2022/11/02 07:15:20;;;;;;;10.23;3.75;;;;;;;10.22;64.10;93539.81;2051947;70;20197;-75
2022/11/02 07:17:45;;;;;;;9.32;3.10;;;;;;;10.34;63.45;93548.44;2054491;69;20145;-75
2022/11/02 07:20:11;;;;;;;9.15;3.17;;;;;;;10.18;63.92;93542.31;2054401;70;20126;-75
2022/11/02 07:22:37;;;;;;;7.80;3.33;;;;;;;10.29;63.08;93538.22;2054572;70;20689;-76
2022/11/02 07:25:03;;;;;;;8.75;3.10;;;;;;;10.42;62.36;93544.16;2054390;70;20209;-76
2022/11/02 07:27:29;;;;;;;10.50;3.50;;;;;;;10.50;62.22;93544.03;2054241;70;20130;-75
2022/11/02 07:29:54;;;;;;;14.85;6.38;;;;;;;10.51;62.69;93548.34;2054180;70;20208;-76
2022/11/02 07:32:20;;;;;;;10.70;3.58;;;;;;;10.29;62.36;93544.59;2054366;69;20154;-75
2022/11/02 07:34:45;;;;;;;15.25;3.60;;;;;;;10.64;61.31;93559.16;2054363;70;20255;-74
2022/11/02 07:37:11;;;;;;;11.50;4.07;;;;;;;10.58;62.28;93567.19;2054444;69;20146;-78
2022/11/02 07:39:36;;;;;;;7.35;3.80;;;;;;;10.57;61.12;93556.47;2054446;70;20169;-76
2022/11/02 07:42:02;;;;;;;8.40;3.45;;;;;;;10.93;61.49;93564.06;2054525;70;20158;-79
2022/11/02 07:44:29;;;;;;;10.88;4.13;;;;;;;10.86;61.46;93556.53;2051173;70;20158;-76
2022/11/02 07:46:55;;;;;;;12.00;5.15;;;;;;;10.73;62.57;93560.50;2054245;70;20142;-74
2022/11/02 07:49:21;;;;;;;13.20;4.88;;;;;;;10.82;62.52;93551.31;2054452;70;20158;-76
2022/11/02 07:51:47;;;;;;;15.98;4.82;;;;;;;10.96;62.12;93553.69;2054859;70;20250;-74
2022/11/02 07:54:14;;;;;;;7.00;3.70;;;;;;;10.84;61.75;93548.66;2054448;70;20583;-79
2022/11/02 07:56:39;;;;;;;10.18;3.60;;;;;;;10.93;62.29;93553.53;2051268;70;20236;-80
2022/11/02 07:59:08;;;;;;;10.32;3.97;;;;;;;11.27;60.84;93548.94;2054512;70;20142;-79
2022/11/02 08:01:34;;;;;;;8.73;3.95;;;;;;;11.41;60.69;93540.75;2051240;70;20514;-77
2022/11/02 08:03:59;;;;;;;7.90;4.03;;;;;;;11.51;61.16;93544.28;2054340;70;20165;-78
2022/11/02 08:06:25;;;;;;;10.82;4.30;;;;;;;11.59;60.63;93542.03;2054359;70;20138;-78
2022/11/02 08:08:51;;;;;;;11.23;4.25;;;;;;;11.10;62.80;93541.38;2054543;70;20154;-78
2022/11/02 08:11:18;;;;;;;15.98;7.25;;;;;;;11.54;61.69;93543.06;2054727;70;20247;-77
2022/11/02 08:13:44;;;;;;;19.70;7.38;;;;;;;11.83;61.75;93542.28;2054723;70;20162;-76
2022/11/02 08:16:09;;;;;;;13.18;6.38;;;;;;;11.97;62.52;93534.78;2054589;70;20157;-76
2022/11/02 08:18:35;;;;;;;16.65;7.40;;;;;;;12.34;61.80;93540.84;2054595;70;20150;-76
2022/11/02 08:21:03;;;;;;;15.02;5.55;;;;;;;12.53;59.78;93533.59;2054682;70;20172;-76
2022/11/02 08:23:28;;;;;;;9.43;4.88;;;;;;;12.77;60.46;93538.03;2054435;70;20605;-76
2022/11/02 08:25:58;;;;;;;12.02;4.70;;;;;;;13.10;58.53;93537.31;2054493;70;20600;-76
2022/11/02 08:28:27;;;;;;;13.93;4.35;;;;;;;13.31;57.64;93534.47;2054534;70;20142;-76
2022/11/02 08:30:53;;;;;;;9.02;3.90;;;;;;;13.27;59.20;93533.47;2054265;70;20166;-77
2022/11/02 08:33:19;;;;;;;12.30;5.57;;;;;;;13.46;58.73;93534.03;2054493;70;20201;-77
2022/11/02 08:35:46;;;;;;;14.25;4.35;;;;;;;14.00;58.19;93521.06;2051195;70;20138;-79
2022/11/02 08:38:12;;;;;;;9.80;3.55;;;;;;;14.28;58.39;93522.06;2054532;70;20163;-80
2022/11/02 08:40:39;;;;;;;9.00;3.60;;;;;;;14.40;55.46;93516.41;2054369;70;20582;-79
2022/11/02 08:43:08;;;;;;;11.18;3.80;;;;;;;14.24;52.85;93525.38;2054147;70;20490;-78
2022/11/02 08:45:35;;;;;;;11.57;3.70;;;;;;;14.44;53.23;93525.88;2054392;70;20345;-77
2022/11/02 08:48:01;;;;;;;7.95;3.38;;;;;;;15.06;52.96;93518.09;2054298;70;20164;-78
2022/11/02 08:50:27;;;;;;;10.35;3.35;;;;;;;14.73;52.29;93519.06;2054302;70;20146;-78
2022/11/02 08:52:53;;;;;;;11.20;4.10;;;;;;;14.70;53.77;93523.88;2054383;70;20150;-77
2022/11/02 08:55:19;;;;;;;10.13;4.07;;;;;;;14.23;53.08;93520.34;2054363;70;20141;-77
2022/11/02 08:57:48;;;;;;;11.60;4.13;;;;;;;14.93;53.06;93525.91;2054418;70;20209;-78
2022/11/02 09:00:15;;;;;;;9.23;3.40;;;;;;;15.54;53.51;93525.06;2054212;70;20169;-78
2022/11/02 09:02:41;;;;;;;10.13;3.90;;;;;;;15.71;52.37;93528.22;2054328;70;20193;-77
2022/11/02 09:05:07;;;;;;;9.95;3.60;;;;;;;15.18;50.21;93525.22;2051023;70;20272;-76
2022/11/02 09:07:33;;;;;;;6.97;3.17;;;;;;;15.93;49.91;93536.44;2054323;70;20225;-77
2022/11/02 09:09:58;;;;;;;9.50;3.50;;;;;;;15.86;50.01;93526.88;2054501;70;20237;-78
2022/11/02 09:12:24;;;;;;;15.05;5.45;;;;;;;16.12;48.57;93533.22;2054441;70;20150;-78
2022/11/02 09:14:50;;;;;;;18.08;8.60;;;;;;;16.17;50.22;93526.41;2054289;70;20296;-77
2022/11/02 09:17:15;;;;;;;17.23;8.80;;;;;;;16.02;50.40;93524.91;2054326;70;20563;-77
2022/11/02 09:19:41;;;;;;;11.02;6.10;;;;;;;16.91;47.74;93516.75;2054374;70;20302;-77
2022/11/02 09:22:06;;;;;;;19.95;7.28;;;;;;;15.86;49.41;93512.69;2054475;70;20142;-77
2022/11/02 09:24:32;;;;;;;8.65;4.28;;;;;;;17.24;46.46;93516.25;2054382;70;20391;-80
2022/11/02 09:26:58;;;;;;;10.98;4.28;;;;;;;17.49;45.87;93511.72;2054203;70;20134;-77
2022/11/02 09:29:23;;;;;;;9.50;3.35;;;;;;;17.84;45.89;93514.13;2054203;70;20138;-77
2022/11/02 09:31:49;;;;;;;9.30;3.28;;;;;;;17.87;46.16;93514.94;2054233;70;20225;-76
2022/11/02 09:34:15;;;;;;;9.00;3.45;;;;;;;18.29;45.06;93514.06;2054464;70;20142;-76
2022/11/02 09:36:41;;;;;;;6.97;2.85;;;;;;;18.91;43.75;93517.50;2054278;70;20166;-79
2022/11/02 09:39:07;;;;;;;11.68;3.05;;;;;;;19.31;42.11;93514.88;2054345;70;20216;-76
2022/11/02 09:41:39;;;;;;;8.40;3.75;;;;;;;18.75;42.03;93514.69;2054224;70;20154;-77
2022/11/02 09:44:17;;;;;;;7.25;2.83;;;;;;;19.31;41.66;93529.16;2054223;70;20166;-77
2022/11/02 09:46:45;;;;;;;5.68;2.75;;;;;;;19.04;41.58;93522.34;2054068;70;20158;-77
2022/11/02 09:49:18;;;;;;;8.68;2.63;;;;;;;19.19;42.58;93528.63;2054256;70;20205;-77
2022/11/02 09:51:53;;;;;;;6.63;2.40;;;;;;;18.58;41.90;93528.84;2054316;70;20547;-78
2022/11/02 09:54:31;;;;;;;6.15;2.90;;;;;;;19.55;42.14;93521.56;2054738;70;20660;-78
2022/11/02 09:57:03;;;;;;;10.25;2.72;;;;;;;19.49;41.59;93520.59;2054754;70;20158;-76
2022/11/02 09:59:29;;;;;;;8.45;3.00;;;;;;;19.99;40.52;93524.03;2054772;70;20513;-81
2022/11/02 10:02:28;;;;;;;10.75;2.70;;;;;;;20.14;38.52;93502.44;2054711;70;20586;-77
2022/11/02 10:05:09;;;;;;;7.50;2.58;;;;;;;20.20;40.50;93511.25;2054814;70;20165;-77
2022/11/02 10:08:12;;;;;;;9.43;2.65;;;;;;;21.34;39.80;93512.50;2054724;70;20150;-77
2022/11/02 10:10:53;;;;;;;9.02;2.88;;;;;;;20.63;39.56;93507.88;2054750;70;20154;-76
2022/11/02 10:13:41;;;;;;;6.00;2.58;;;;;;;22.57;37.31;93503.47;2054830;70;20168;-77
2022/11/02 10:16:35;;;;;;;9.50;2.80;;;;;;;21.53;37.90;93494.56;2054499;69;20181;-78
2022/11/02 10:19:01;;;;;;;;;;;;;;;22.61;36.21;93499.25;2054833;70;20209;-78
2022/11/02 10:21:37;;;;;;;8.55;3.00;;;;;;;20.90;38.90;93495.25;2054743;69;20070;-77
2022/11/02 10:24:30;;;;;;;7.20;3.10;;;;;;;22.80;36.30;93493.34;2054733;70;20156;-77
2022/11/02 10:26:59;;;;;;;10.00;3.08;;;;;;;22.35;35.70;93494.22;2054685;70;20157;-77
2022/11/02 10:29:53;;;;;;;9.88;2.80;;;;;;;21.77;34.85;93486.00;2054807;70;20517;-77
2022/11/02 10:32:18;;;;;;;7.32;3.15;;;;;;;23.38;34.33;93477.66;2051356;70;20166;-77
2022/11/02 10:34:45;;;;;;;7.15;3.60;;;;;;;21.90;35.51;93481.38;2054686;70;20685;-77
2022/11/02 10:37:23;;;;;;;7.65;2.72;;;;;;;24.00;33.70;93486.38;2054690;70;20355;-77
2022/11/02 10:39:58;;;;;;;5.45;2.50;;;;;;;24.94;32.62;93477.59;2054628;70;20242;-77
2022/11/02 10:43:01;;;;;;;8.15;3.67;;;;;;;24.99;32.04;93478.41;2054802;70;20149;-77
2022/11/02 10:45:38;;;;;;;9.02;3.50;;;;;;;26.78;30.80;93474.81;2054622;70;20146;-77
2022/11/02 10:48:07;;;;;;;7.10;2.92;;;;;;;28.07;29.56;93480.47;2054592;70;20602;-77
2022/11/02 10:50:57;;;;;;;8.93;3.28;;;;;;;27.15;29.55;93475.25;2054688;70;20134;-78
2022/11/02 10:53:23;;;;;;;8.80;2.60;;;;;;;26.51;29.29;93483.13;2054792;70;20249;-80
2022/11/02 10:55:58;;;;;;;7.05;2.83;;;;;;;28.17;29.81;93481.97;2054669;70;20156;-79
2022/11/02 10:58:27;;;;;;;8.35;3.50;;;;;;;26.64;29.44;93483.31;2054738;70;20597;-79
2022/11/02 11:01:22;;;;;;;5.85;3.40;;;;;;;28.16;27.46;93484.16;2054584;70;20146;-79
2022/11/02 11:03:57;;;;;;;8.02;3.30;;;;;;;28.89;27.00;93486.78;2043093;70;20154;-79
2022/11/02 11:06:25;;;;;;;7.82;2.65;;;;;;;28.15;27.02;93474.03;2044435;70;20155;-80
2022/11/02 11:08:57;;;;;;;10.48;2.80;;;;;;;26.70;29.22;93477.59;2044604;70;20261;-82
2022/11/02 11:11:39;;;;;;;7.47;2.47;;;;;;;25.72;29.78;93458.84;2044593;70;20259;-80
2022/11/02 11:14:10;;;;;;;7.82;2.70;;;;;;;25.02;32.50;93468.41;2041564;70;20143;-79
2022/11/02 11:16:36;;;;;;;7.32;2.55;;;;;;;24.45;30.59;93456.47;2043689;70;20603;-77
2022/11/02 11:19:04;;;;;;;5.63;2.53;;;;;;;24.58;32.31;93451.69;2043882;70;20151;-78
2022/11/02 11:21:40;;;;;;;7.45;2.70;;;;;;;24.92;31.72;93456.66;2043991;70;20202;-79
2022/11/02 11:24:22;;;;;;;7.82;2.80;;;;;;;25.12;31.94;93447.72;2044277;70;20346;-79
2022/11/02 11:27:14;;;;;;;5.00;2.55;;;;;;;25.98;31.42;93453.50;2044096;70;20159;-79
2022/11/02 11:29:50;;;;;;;6.38;2.92;;;;;;;27.75;29.59;93454.19;2047748;70;20157;-78
2022/11/02 11:32:25;;;;;;;7.80;2.70;;;;;;;29.05;26.85;93442.69;2049231;70;20616;-78
2022/11/02 11:35:03;;;;;;;5.30;2.20;;;;;;;26.14;29.66;93438.59;2048585;70;20234;-78
2022/11/02 11:37:30;;;;;;;5.78;2.22;;;;;;;24.14;31.80;93437.06;2044470;70;20225;-80
2022/11/02 11:40:03;;;;;;;9.75;2.72;;;;;;;24.58;31.86;93435.16;2047657;70;20166;-76
2022/11/02 11:42:35;;;;;;;6.22;2.20;;;;;;;23.55;33.39;93430.69;2054571;70;20173;-77
2022/11/02 11:45:21;;;;;;;6.63;2.50;;;;;;;23.46;33.79;93421.13;2054441;69;20229;-76
2022/11/02 11:47:53;;;;;;;7.88;2.60;;;;;;;23.36;33.85;93426.63;2054380;70;20256;-77
2022/11/02 11:50:19;;;;;;;8.98;2.95;;;;;;;22.88;34.50;93420.34;2054522;70;20693;-76
2022/11/02 11:52:44;;;;;;;9.40;2.67;;;;;;;22.30;35.62;93418.06;2054513;70;20245;-78
2022/11/02 11:55:30;;;;;;;9.75;2.70;;;;;;;22.24;35.63;93412.16;2054504;69;20340;-77
2022/11/02 11:58:12;;;;;;;14.25;3.00;;;;;;;22.49;35.02;93410.69;2054648;69;20162;-79
2022/11/02 12:00:38;;;;;;;7.60;2.80;;;;;;;22.08;35.46;93410.25;2051275;70;20649;-79
2022/11/02 12:03:09;;;;;;;6.07;2.80;;;;;;;21.92;36.46;93412.63;2054712;70;20176;-79
2022/11/02 12:06:14;;;;;;;9.50;3.33;;;;;;;21.55;36.45;93413.66;2054636;70;20134;-76
2022/11/02 12:09:28;;;;;;;7.25;2.80;;;;;;;21.83;37.33;93408.06;2051276;70;20297;-76
2022/11/02 12:12:21;;;;;;;7.65;2.90;;;;;;;21.94;38.00;93406.94;2050270;70;20578;-74
2022/11/02 12:15:18;;;;;;;8.43;2.65;;;;;;;21.89;36.30;93398.91;2050894;70;20185;-75
2022/11/02 12:17:58;;;;;;;7.32;2.97;;;;;;;21.68;36.82;93391.84;2051154;70;20151;-77